createdAt,value
2018-05-07T00:00:51.176Z,3.40
2018-05-07T00:01:57.897Z,3.30
2018-05-07T00:03:04.651Z,3.00
2018-05-07T00:04:11.427Z,3.40
2018-05-07T00:05:18.098Z,3.00
2018-05-07T00:06:24.861Z,3.60
2018-05-07T00:07:31.670Z,2.90
2018-05-07T00:08:38.378Z,3.40
2018-05-07T00:09:45.186Z,3.10
2018-05-07T00:10:51.947Z,3.00
2018-05-07T00:11:58.700Z,3.10
2018-05-07T00:13:05.512Z,3.10
2018-05-07T00:14:12.555Z,2.50
2018-05-07T00:15:19.123Z,3.40
2018-05-07T00:16:25.926Z,3.20
2018-05-07T00:17:32.714Z,3.20
2018-05-07T00:18:39.466Z,3.10
2018-05-07T00:19:46.209Z,3.00
2018-05-07T00:20:52.952Z,3.10
2018-05-07T00:21:59.780Z,3.00
2018-05-07T00:23:06.522Z,3.30
2018-05-07T00:24:13.304Z,3.30
2018-05-07T00:25:20.031Z,3.10
2018-05-07T00:26:26.835Z,3.30
2018-05-07T00:27:33.581Z,3.50
2018-05-07T00:28:40.384Z,3.60
2018-05-07T00:29:47.079Z,3.30
2018-05-07T00:30:53.827Z,3.20
2018-05-07T00:32:00.566Z,3.60
2018-05-07T00:33:07.389Z,3.20
2018-05-07T00:34:14.103Z,3.10
2018-05-07T00:35:21.031Z,3.10
2018-05-07T00:36:27.843Z,3.50
2018-05-07T00:37:34.695Z,3.20
2018-05-07T00:38:41.492Z,3.10
2018-05-07T00:39:48.335Z,3.20
2018-05-07T00:40:55.060Z,2.90
2018-05-07T00:42:01.791Z,2.70
2018-05-07T00:43:08.580Z,3.40
2018-05-07T00:44:15.291Z,3.40
2018-05-07T00:45:22.048Z,3.20
2018-05-07T00:46:28.778Z,3.40
2018-05-07T00:47:35.529Z,3.20
2018-05-07T00:48:42.283Z,3.10
2018-05-07T00:49:49.010Z,3.20
2018-05-07T00:50:55.982Z,3.30
2018-05-07T00:52:02.700Z,3.00
2018-05-07T00:53:09.440Z,3.00
2018-05-07T00:54:16.412Z,3.20
2018-05-07T00:55:23.177Z,3.10
2018-05-07T00:56:29.914Z,3.50
2018-05-07T00:57:36.638Z,3.00
2018-05-07T00:58:43.390Z,2.90
2018-05-07T00:59:50.202Z,2.90
2018-05-07T01:00:57.001Z,2.90
2018-05-07T01:02:03.743Z,2.70
2018-05-07T01:03:10.519Z,3.10
2018-05-07T01:04:17.299Z,2.80
2018-05-07T01:05:24.005Z,3.20
2018-05-07T01:06:30.787Z,2.90
2018-05-07T01:07:37.554Z,2.90
2018-05-07T01:08:44.420Z,3.00
2018-05-07T01:09:51.196Z,3.10
2018-05-07T01:10:58.010Z,2.90
2018-05-07T01:12:04.845Z,3.00
2018-05-07T01:13:11.628Z,3.00
2018-05-07T01:14:18.416Z,3.10
2018-05-07T01:15:25.260Z,2.80
2018-05-07T01:16:32.013Z,2.90
2018-05-07T01:17:38.827Z,2.90
2018-05-07T01:18:45.722Z,2.70
2018-05-07T01:19:52.495Z,3.00
2018-05-07T01:20:59.272Z,3.30
2018-05-07T01:22:06.151Z,2.70
2018-05-07T01:23:12.938Z,3.00
2018-05-07T01:24:19.707Z,2.90
2018-05-07T01:25:26.594Z,3.10
2018-05-07T01:26:33.306Z,2.80
2018-05-07T01:27:40.114Z,2.90
2018-05-07T01:28:46.942Z,3.00
2018-05-07T01:29:53.692Z,3.50
2018-05-07T01:31:00.647Z,2.90
2018-05-07T01:32:07.502Z,3.10
2018-05-07T01:33:14.302Z,3.20
2018-05-07T01:34:21.092Z,3.10
2018-05-07T01:35:27.935Z,2.90
2018-05-07T01:36:34.706Z,2.80
2018-05-07T01:37:41.510Z,3.00
2018-05-07T01:38:48.394Z,3.50
2018-05-07T01:39:55.199Z,2.60
2018-05-07T01:41:01.986Z,3.10
2018-05-07T01:42:08.834Z,3.00
2018-05-07T01:43:15.638Z,3.10
2018-05-07T01:44:22.407Z,3.20
2018-05-07T01:45:29.434Z,2.90
2018-05-07T01:46:36.240Z,3.10
2018-05-07T01:47:43.266Z,2.50
2018-05-07T01:48:50.035Z,3.30
2018-05-07T01:49:56.863Z,2.50
2018-05-07T01:51:03.642Z,3.20
2018-05-07T01:52:10.396Z,3.00
2018-05-07T01:53:17.157Z,2.40
2018-05-07T01:54:23.930Z,3.40
2018-05-07T01:55:30.707Z,2.80
2018-05-07T01:56:37.507Z,3.20
2018-05-07T01:57:44.360Z,2.80
2018-05-07T01:58:51.133Z,2.80
2018-05-07T01:59:57.975Z,3.30
2018-05-07T02:01:04.806Z,2.70
2018-05-07T02:02:11.577Z,2.60
2018-05-07T02:03:18.406Z,3.30
2018-05-07T02:04:25.263Z,2.70
2018-05-07T02:05:32.028Z,2.70
2018-05-07T02:06:38.839Z,2.60
2018-05-07T02:07:45.604Z,2.70
2018-05-07T02:08:52.385Z,2.90
2018-05-07T02:09:59.168Z,3.00
2018-05-07T02:11:05.947Z,3.20
2018-05-07T02:12:12.843Z,3.10
2018-05-07T02:13:19.644Z,3.30
2018-05-07T02:14:26.600Z,2.60
2018-05-07T02:15:33.343Z,2.50
2018-05-07T02:16:40.168Z,2.90
2018-05-07T02:17:46.932Z,2.60
2018-05-07T02:18:53.758Z,2.50
2018-05-07T02:20:00.990Z,2.80
2018-05-07T02:21:08.159Z,2.70
2018-05-07T02:22:14.962Z,2.70
2018-05-07T02:23:21.711Z,2.30
2018-05-07T02:24:28.499Z,2.80
2018-05-07T02:25:35.301Z,2.70
2018-05-07T02:26:42.044Z,3.00
2018-05-07T02:27:48.906Z,2.90
2018-05-07T02:28:55.703Z,2.80
2018-05-07T02:30:02.498Z,3.30
2018-05-07T02:31:09.335Z,2.90
2018-05-07T02:32:16.108Z,2.80
2018-05-07T02:33:22.911Z,3.20
2018-05-07T02:34:29.783Z,2.50
2018-05-07T02:35:36.651Z,2.70
2018-05-07T02:36:43.492Z,2.90
2018-05-07T02:37:50.229Z,2.90
2018-05-07T02:38:57.127Z,2.80
2018-05-07T02:40:03.839Z,3.20
2018-05-07T02:41:10.716Z,3.00
2018-05-07T02:42:17.479Z,3.20
2018-05-07T02:43:24.258Z,2.70
2018-05-07T02:44:31.079Z,2.30
2018-05-07T02:45:37.827Z,2.30
2018-05-07T02:46:44.576Z,2.60
2018-05-07T02:47:51.338Z,3.20
2018-05-07T02:48:58.138Z,2.60
2018-05-07T02:50:05.308Z,2.70
2018-05-07T02:51:12.067Z,2.40
2018-05-07T02:52:18.803Z,3.20
2018-05-07T02:53:25.590Z,3.00
2018-05-07T02:54:32.363Z,3.20
2018-05-07T02:55:39.168Z,2.80
2018-05-07T02:56:45.910Z,2.90
2018-05-07T02:57:52.707Z,3.40
2018-05-07T02:58:59.495Z,2.70
2018-05-07T03:00:06.301Z,2.90
2018-05-07T03:01:13.071Z,2.80
2018-05-07T03:02:19.865Z,2.80
2018-05-07T03:03:26.821Z,2.80
2018-05-07T03:04:33.633Z,2.70
2018-05-07T03:05:40.528Z,2.90
2018-05-07T03:06:47.303Z,2.70
2018-05-07T03:07:54.148Z,2.80
2018-05-07T03:09:01.026Z,2.90
2018-05-07T03:10:07.732Z,2.80
2018-05-07T03:11:14.539Z,2.60
2018-05-07T03:12:21.282Z,2.50
2018-05-07T03:13:28.145Z,2.50
2018-05-07T03:14:34.938Z,2.80
2018-05-07T03:15:41.742Z,2.80
2018-05-07T03:16:48.602Z,2.90
2018-05-07T03:17:55.372Z,2.90
2018-05-07T03:19:02.139Z,2.70
2018-05-07T03:20:08.923Z,2.70
2018-05-07T03:21:15.732Z,2.90
2018-05-07T03:22:22.667Z,2.60
2018-05-07T03:23:29.547Z,3.00
2018-05-07T03:24:36.323Z,2.70
2018-05-07T03:25:43.062Z,2.90
2018-05-07T03:26:49.825Z,3.00
2018-05-07T03:27:56.646Z,2.90
2018-05-07T03:29:08.467Z,3.40
2018-05-07T03:30:15.363Z,2.90
2018-05-07T03:31:22.185Z,3.00
2018-05-07T03:32:24.103Z,2.60
2018-05-07T03:33:30.967Z,2.90
2018-05-07T03:34:37.812Z,2.70
2018-05-07T03:35:44.615Z,2.90
2018-05-07T03:36:51.436Z,2.90
2018-05-07T03:37:58.221Z,2.70
2018-05-07T03:39:05.015Z,3.00
2018-05-07T03:40:12.022Z,2.90
2018-05-07T03:41:18.911Z,2.90
2018-05-07T03:42:25.733Z,2.80
2018-05-07T03:43:32.635Z,2.90
2018-05-07T03:44:39.540Z,3.10
2018-05-07T03:45:46.459Z,3.00
2018-05-07T03:46:53.346Z,3.20
2018-05-07T03:48:00.510Z,3.20
2018-05-07T03:49:07.191Z,3.40
2018-05-07T03:50:13.959Z,2.90
2018-05-07T03:51:20.993Z,3.10
2018-05-07T03:52:27.783Z,3.20
2018-05-07T03:53:34.572Z,3.60
2018-05-07T03:54:41.306Z,3.20
2018-05-07T03:55:48.178Z,2.70
2018-05-07T03:56:54.946Z,3.00
2018-05-07T03:58:01.720Z,3.00
2018-05-07T03:59:08.623Z,3.00
2018-05-07T04:00:15.383Z,3.00
2018-05-07T04:01:22.140Z,2.90
2018-05-07T04:02:28.911Z,2.80
2018-05-07T04:03:35.735Z,3.60
2018-05-07T04:04:42.748Z,2.60
2018-05-07T04:05:49.583Z,2.90
2018-05-07T04:06:56.411Z,3.20
2018-05-07T04:08:03.327Z,3.10
2018-05-07T04:09:10.238Z,3.00
2018-05-07T04:10:17.118Z,2.70
2018-05-07T04:11:23.959Z,3.30
2018-05-07T04:12:30.702Z,2.80
2018-05-07T04:13:37.613Z,2.60
2018-05-07T04:14:44.423Z,3.10
2018-05-07T04:15:51.238Z,2.70
2018-05-07T04:16:58.058Z,3.00
2018-05-07T04:19:10.316Z,2.80
2018-05-07T04:20:17.255Z,2.90
2018-05-07T04:21:24.371Z,3.10
2018-05-07T04:22:31.375Z,2.90
2018-05-07T04:23:38.547Z,2.70
2018-05-07T04:24:45.540Z,2.80
2018-05-07T04:25:52.358Z,2.80
2018-05-07T04:26:59.134Z,2.70
2018-05-07T04:28:05.891Z,2.80
2018-05-07T04:29:12.690Z,2.90
2018-05-07T04:30:19.527Z,2.90
2018-05-07T04:31:26.283Z,2.60
2018-05-07T04:32:33.065Z,2.80
2018-05-07T04:33:39.917Z,2.50
2018-05-07T04:34:46.736Z,2.80
2018-05-07T04:35:53.491Z,2.80
2018-05-07T04:37:00.243Z,3.30
2018-05-07T04:38:07.104Z,2.90
2018-05-07T04:39:13.894Z,3.00
2018-05-07T04:40:20.688Z,3.20
2018-05-07T04:41:27.686Z,2.90
2018-05-07T04:42:34.469Z,3.10
2018-05-07T04:43:41.333Z,3.40
2018-05-07T04:44:48.158Z,2.90
2018-05-07T04:45:55.008Z,3.30
2018-05-07T04:47:01.777Z,3.30
2018-05-07T04:48:08.563Z,3.00
2018-05-07T04:49:15.347Z,3.10
2018-05-07T04:50:22.135Z,3.00
2018-05-07T04:51:28.926Z,3.00
2018-05-07T04:52:35.715Z,3.40
2018-05-07T04:53:42.475Z,3.50
2018-05-07T04:54:49.306Z,3.20
2018-05-07T04:55:56.075Z,3.60
2018-05-07T04:57:02.871Z,3.60
2018-05-07T04:58:09.666Z,3.40
2018-05-07T04:59:16.511Z,4.30
2018-05-07T05:00:23.345Z,3.90
2018-05-07T05:01:30.679Z,3.50
2018-05-07T05:02:37.146Z,3.50
2018-05-07T05:03:43.905Z,3.10
2018-05-07T05:04:51.050Z,3.40
2018-05-07T05:05:57.838Z,3.90
2018-05-07T05:07:04.546Z,3.50
2018-05-07T05:08:11.650Z,3.60
2018-05-07T05:09:18.374Z,3.60
2018-05-07T05:10:25.225Z,3.50
2018-05-07T05:11:32.006Z,4.00
2018-05-07T05:12:38.735Z,3.20
2018-05-07T05:13:45.470Z,3.50
2018-05-07T05:14:52.322Z,3.50
2018-05-07T05:15:59.041Z,3.70
2018-05-07T05:17:05.790Z,3.90
2018-05-07T05:18:12.523Z,3.70
2018-05-07T05:19:19.351Z,4.10
2018-05-07T05:20:26.114Z,3.90
2018-05-07T05:21:33.021Z,4.60
2018-05-07T05:22:39.703Z,4.10
2018-05-07T05:23:46.583Z,3.50
2018-05-07T05:24:53.287Z,3.70
2018-05-07T05:26:00.027Z,4.10
2018-05-07T05:27:06.806Z,4.90
2018-05-07T05:28:13.559Z,4.90
2018-05-07T05:29:20.391Z,4.70
2018-05-07T05:30:27.135Z,4.80
2018-05-07T05:31:33.934Z,4.30
2018-05-07T05:32:40.750Z,4.40
2018-05-07T05:33:47.526Z,4.50
2018-05-07T05:34:54.286Z,4.00
2018-05-07T05:36:01.082Z,4.20
2018-05-07T05:37:07.826Z,3.60
2018-05-07T05:38:14.523Z,3.60
2018-05-07T05:39:21.307Z,3.50
2018-05-07T05:40:28.085Z,3.10
2018-05-07T05:41:35.078Z,3.20
2018-05-07T05:42:41.826Z,3.10
2018-05-07T05:43:48.574Z,3.10
2018-05-07T05:44:55.598Z,2.90
2018-05-07T05:46:02.326Z,3.10
2018-05-07T05:47:09.070Z,3.00
2018-05-07T05:48:16.106Z,2.90
2018-05-07T05:49:22.913Z,2.70
2018-05-07T05:50:29.622Z,2.80
2018-05-07T05:51:36.347Z,2.70
2018-05-07T05:52:43.171Z,2.90
2018-05-07T05:53:49.891Z,4.10
2018-05-07T05:54:56.623Z,4.70
2018-05-07T05:56:03.344Z,5.00
2018-05-07T05:57:10.091Z,4.90
2018-05-07T05:58:16.783Z,5.20
2018-05-07T05:59:23.631Z,2.70
2018-05-07T06:00:30.338Z,3.10
2018-05-07T06:01:37.078Z,2.60
2018-05-07T06:02:43.807Z,3.00
2018-05-07T06:03:50.719Z,2.50
2018-05-07T06:04:57.391Z,3.80
2018-05-07T06:06:04.203Z,4.60
2018-05-07T06:07:10.971Z,4.80
2018-05-07T06:08:17.750Z,4.50
2018-05-07T06:09:24.559Z,4.50
2018-05-07T06:10:31.299Z,2.70
2018-05-07T06:11:38.117Z,2.80
2018-05-07T06:12:45.010Z,2.70
2018-05-07T06:13:51.838Z,2.60
2018-05-07T06:14:58.798Z,2.60
2018-05-07T06:16:05.494Z,2.90
2018-05-07T06:17:12.253Z,3.00
2018-05-07T06:18:19.035Z,2.50
2018-05-07T06:19:25.983Z,2.10
2018-05-07T06:20:32.748Z,2.90
2018-05-07T06:21:39.515Z,2.70
2018-05-07T06:22:46.269Z,2.60
2018-05-07T06:23:53.085Z,2.80
2018-05-07T06:24:59.884Z,2.60
2018-05-07T06:26:06.714Z,2.60
2018-05-07T06:27:13.632Z,2.60
2018-05-07T06:28:20.490Z,2.60
2018-05-07T06:29:27.276Z,2.80
2018-05-07T06:30:34.158Z,2.50
2018-05-07T06:31:40.974Z,2.70
2018-05-07T06:32:47.734Z,3.00
2018-05-07T06:33:54.538Z,2.80
2018-05-07T06:35:01.405Z,4.70
2018-05-07T06:36:08.355Z,4.40
2018-05-07T06:37:15.143Z,4.20
2018-05-07T06:38:21.948Z,4.40
2018-05-07T06:39:28.835Z,3.70
2018-05-07T06:40:35.591Z,3.10
2018-05-07T06:41:42.335Z,2.80
2018-05-07T06:42:49.134Z,2.90
2018-05-07T06:43:55.973Z,3.00
2018-05-07T06:45:02.753Z,2.90
2018-05-07T06:46:09.514Z,2.60
2018-05-07T06:47:16.299Z,3.40
2018-05-07T06:48:23.226Z,3.10
2018-05-07T06:49:30.337Z,3.30
2018-05-07T06:50:37.110Z,2.70
2018-05-07T06:51:43.886Z,3.00
2018-05-07T06:52:50.680Z,2.90
2018-05-07T06:53:57.456Z,2.70
2018-05-07T06:55:04.249Z,3.10
2018-05-07T06:56:11.023Z,2.80
2018-05-07T06:57:17.799Z,2.90
2018-05-07T06:58:24.546Z,2.90
2018-05-07T06:59:31.385Z,3.20
2018-05-07T07:00:38.270Z,3.20
2018-05-07T07:01:45.130Z,2.80
2018-05-07T07:02:52.014Z,2.90
2018-05-07T07:03:58.750Z,3.00
2018-05-07T07:05:05.487Z,2.80
2018-05-07T07:06:12.214Z,2.80
2018-05-07T07:07:19.240Z,3.00
2018-05-07T07:08:26.047Z,3.00
2018-05-07T07:09:32.672Z,3.10
2018-05-07T07:10:39.399Z,3.00
2018-05-07T07:11:46.090Z,2.70
2018-05-07T07:12:52.827Z,3.20
2018-05-07T07:13:59.699Z,3.10
2018-05-07T07:15:06.442Z,3.00
2018-05-07T07:16:13.187Z,2.80
2018-05-07T07:17:19.879Z,2.70
2018-05-07T07:18:26.642Z,2.60
2018-05-07T07:19:33.502Z,3.00
2018-05-07T07:20:40.346Z,3.10
2018-05-07T07:21:47.135Z,3.20
2018-05-07T07:22:53.787Z,2.90
2018-05-07T07:24:00.614Z,3.00
2018-05-07T07:25:07.317Z,2.90
2018-05-07T07:26:14.054Z,2.90
2018-05-07T07:27:20.822Z,2.80
2018-05-07T07:28:27.538Z,3.00
2018-05-07T07:29:34.274Z,3.00
2018-05-07T07:30:41.138Z,2.50
2018-05-07T07:31:47.933Z,2.60
2018-05-07T07:32:54.874Z,2.70
2018-05-07T07:34:01.722Z,3.00
2018-05-07T07:35:08.647Z,2.80
2018-05-07T07:36:15.492Z,3.00
2018-05-07T07:37:22.291Z,2.90
2018-05-07T07:38:28.986Z,3.10
2018-05-07T07:39:35.823Z,3.20
2018-05-07T07:40:42.550Z,3.30
2018-05-07T07:41:52.634Z,2.90
2018-05-07T07:42:56.072Z,2.80
2018-05-07T07:44:02.793Z,2.80
2018-05-07T07:45:09.626Z,2.90
2018-05-07T07:46:16.370Z,3.00
2018-05-07T07:47:23.095Z,3.10
2018-05-07T07:48:29.830Z,2.90
2018-05-07T07:49:36.598Z,2.80
2018-05-07T07:50:43.393Z,2.60
2018-05-07T07:51:50.227Z,3.00
2018-05-07T07:52:56.964Z,2.90
2018-05-07T07:54:03.794Z,3.00
2018-05-07T07:55:10.670Z,3.10
2018-05-07T07:56:17.378Z,3.00
2018-05-07T07:57:24.132Z,3.00
2018-05-07T07:58:30.954Z,3.00
2018-05-07T07:59:37.686Z,2.80
2018-05-07T08:00:44.479Z,3.20
2018-05-07T08:01:51.207Z,2.80
2018-05-07T08:02:58.154Z,3.00
2018-05-07T08:04:05.018Z,2.70
2018-05-07T08:05:11.908Z,2.50
2018-05-07T08:06:18.674Z,2.80
2018-05-07T08:07:25.474Z,2.90
2018-05-07T08:08:32.211Z,2.50
2018-05-07T08:09:39.014Z,2.80
2018-05-07T08:10:47.174Z,3.40
2018-05-07T08:11:52.552Z,2.80
2018-05-07T08:12:59.482Z,3.10
2018-05-07T08:14:06.306Z,2.90
2018-05-07T08:15:13.091Z,3.20
2018-05-07T08:16:19.938Z,3.00
2018-05-07T08:17:26.889Z,2.70
2018-05-07T08:18:33.788Z,3.30
2018-05-07T08:19:40.512Z,2.80
2018-05-07T08:20:47.262Z,3.00
2018-05-07T08:21:54.019Z,3.00
2018-05-07T08:23:00.846Z,3.30
2018-05-07T08:24:07.643Z,3.00
2018-05-07T08:25:14.403Z,3.20
2018-05-07T08:26:21.310Z,2.80
2018-05-07T08:27:28.138Z,2.90
2018-05-07T08:28:34.972Z,2.70
2018-05-07T08:29:41.788Z,3.30
2018-05-07T08:30:48.622Z,3.20
2018-05-07T08:31:55.410Z,2.80
2018-05-07T08:33:02.330Z,3.80
2018-05-07T08:34:09.098Z,3.30
2018-05-07T08:35:16.107Z,3.00
2018-05-07T08:36:22.916Z,3.30
2018-05-07T08:37:30.007Z,3.50
2018-05-07T08:38:36.843Z,3.30
2018-05-07T08:39:43.715Z,3.80
2018-05-07T08:40:51.018Z,3.10
2018-05-07T08:41:57.375Z,3.30
2018-05-07T08:43:04.159Z,2.80
2018-05-07T08:44:10.898Z,3.10
2018-05-07T08:45:17.698Z,3.20
2018-05-07T08:46:24.451Z,3.40
2018-05-07T08:47:31.251Z,3.10
2018-05-07T08:48:38.054Z,3.40
2018-05-07T08:49:44.834Z,3.10
2018-05-07T08:50:51.747Z,3.00
2018-05-07T08:51:58.446Z,3.30
2018-05-07T08:53:05.264Z,3.00
2018-05-07T08:54:11.990Z,3.10
2018-05-07T08:55:18.802Z,3.30
2018-05-07T08:56:25.631Z,3.40
2018-05-07T08:57:32.383Z,3.20
2018-05-07T08:58:40.015Z,3.00
2018-05-07T08:59:45.897Z,3.60
2018-05-07T09:00:52.650Z,3.00
2018-05-07T09:01:59.406Z,3.00
2018-05-07T09:03:06.170Z,2.90
2018-05-07T09:04:13.004Z,3.50
2018-05-07T09:05:19.775Z,3.30
2018-05-07T09:06:26.555Z,3.50
2018-05-07T09:07:33.332Z,2.80
2018-05-07T09:08:39.965Z,3.60
2018-05-07T09:09:47.788Z,3.20
2018-05-07T09:10:53.589Z,3.10
2018-05-07T09:12:00.328Z,3.20
2018-05-07T09:13:07.092Z,3.10
2018-05-07T09:14:13.881Z,3.30
2018-05-07T09:15:20.640Z,3.20
2018-05-07T09:16:27.392Z,3.10
2018-05-07T09:17:34.347Z,3.50
2018-05-07T09:18:41.136Z,3.10
2018-05-07T09:19:47.934Z,3.00
2018-05-07T09:20:54.687Z,3.20
2018-05-07T09:22:01.466Z,3.20
2018-05-07T09:23:08.157Z,2.60
2018-05-07T09:24:14.870Z,3.20
2018-05-07T09:25:21.594Z,3.00
2018-05-07T09:26:28.316Z,3.10
2018-05-07T09:27:35.014Z,3.00
2018-05-07T09:28:41.713Z,3.20
2018-05-07T09:29:48.534Z,3.00
2018-05-07T09:30:55.258Z,2.60
2018-05-07T09:32:03.077Z,3.10
2018-05-07T09:33:08.833Z,3.70
2018-05-07T09:34:15.666Z,2.80
2018-05-07T09:35:22.449Z,3.40
2018-05-07T09:36:29.198Z,3.10
2018-05-07T09:37:35.901Z,2.80
2018-05-07T09:38:42.607Z,3.20
2018-05-07T09:39:49.421Z,2.80
2018-05-07T09:40:56.139Z,3.10
2018-05-07T09:42:02.877Z,2.70
2018-05-07T09:43:09.672Z,2.90
2018-05-07T09:44:16.374Z,2.80
2018-05-07T09:45:23.294Z,3.10
2018-05-07T09:46:30.187Z,2.70
2018-05-07T09:47:37.006Z,2.90
2018-05-07T09:48:43.794Z,3.00
2018-05-07T09:49:50.674Z,3.20
2018-05-07T09:50:57.490Z,3.10
2018-05-07T09:52:04.186Z,3.10
2018-05-07T09:53:10.896Z,3.30
2018-05-07T09:54:17.595Z,3.10
2018-05-07T09:55:24.353Z,3.00
2018-05-07T09:56:31.049Z,3.50
2018-05-07T09:57:37.911Z,3.30
2018-05-07T09:58:44.758Z,3.00
2018-05-07T09:59:51.753Z,3.40
2018-05-07T10:00:58.526Z,3.00
2018-05-07T10:02:05.241Z,3.00
2018-05-07T10:03:11.935Z,3.00
2018-05-07T10:04:18.625Z,3.10
2018-05-07T10:05:25.363Z,3.10
2018-05-07T10:06:32.201Z,3.10
2018-05-07T10:07:39.291Z,3.00
2018-05-07T10:08:46.093Z,2.80
2018-05-07T10:09:53.102Z,3.10
2018-05-07T10:10:59.853Z,2.90
2018-05-07T10:12:06.595Z,2.90
2018-05-07T10:13:13.313Z,3.00
2018-05-07T10:14:20.026Z,3.10
2018-05-07T10:15:26.845Z,2.90
2018-05-07T10:16:33.587Z,3.10
2018-05-07T10:17:40.369Z,2.80
2018-05-07T10:18:47.374Z,2.90
2018-05-07T10:19:54.132Z,3.40
2018-05-07T10:21:00.896Z,2.80
2018-05-07T10:22:07.975Z,3.20
2018-05-07T10:23:14.679Z,3.10
2018-05-07T10:24:21.481Z,3.30
2018-05-07T10:25:28.222Z,2.90
2018-05-07T10:26:35.050Z,3.10
2018-05-07T10:27:41.799Z,3.00
2018-05-07T10:28:48.550Z,2.80
2018-05-07T10:29:55.395Z,3.50
2018-05-07T10:31:02.094Z,3.20
2018-05-07T10:32:08.885Z,2.80
2018-05-07T10:33:15.649Z,3.00
2018-05-07T10:34:22.426Z,3.10
2018-05-07T10:35:29.390Z,2.90
2018-05-07T10:36:36.126Z,2.80
2018-05-07T10:37:42.958Z,3.00
2018-05-07T10:38:49.979Z,3.50
2018-05-07T10:39:56.692Z,2.90
2018-05-07T10:41:03.437Z,3.50
2018-05-07T10:42:10.180Z,3.10
2018-05-07T10:43:16.974Z,3.30
2018-05-07T10:44:23.783Z,3.10
2018-05-07T10:45:30.535Z,3.00
2018-05-07T10:46:37.239Z,3.00
2018-05-07T10:47:44.029Z,2.80
2018-05-07T10:48:50.738Z,2.70
2018-05-07T10:49:57.427Z,2.80
2018-05-07T10:51:04.174Z,2.90
2018-05-07T10:52:11.326Z,3.50
2018-05-07T10:53:18.105Z,3.50
2018-05-07T10:54:24.894Z,3.10
2018-05-07T10:55:31.662Z,3.20
2018-05-07T10:56:38.398Z,2.90
2018-05-07T10:57:45.098Z,3.20
2018-05-07T10:58:51.841Z,3.20
2018-05-07T10:59:58.566Z,2.90
2018-05-07T11:01:05.370Z,3.10
2018-05-07T11:02:12.063Z,3.10
2018-05-07T11:03:18.884Z,3.00
2018-05-07T11:04:25.620Z,3.30
2018-05-07T11:05:32.318Z,3.30
2018-05-07T11:06:39.134Z,2.90
2018-05-07T11:07:45.911Z,3.00
2018-05-07T11:08:52.663Z,3.00
2018-05-07T11:09:59.408Z,2.90
2018-05-07T11:11:06.254Z,2.90
2018-05-07T11:12:13.011Z,3.00
2018-05-07T11:13:19.847Z,3.10
2018-05-07T11:14:26.707Z,3.00
2018-05-07T11:15:33.467Z,2.90
2018-05-07T11:16:40.258Z,2.90
2018-05-07T11:17:47.034Z,3.20
2018-05-07T11:18:53.991Z,3.20
2018-05-07T11:20:00.619Z,2.90
2018-05-07T11:21:07.467Z,2.90
2018-05-07T11:22:14.286Z,3.00
2018-05-07T11:23:21.087Z,3.20
2018-05-07T11:24:27.867Z,3.00
2018-05-07T11:25:34.736Z,2.80
2018-05-07T11:26:41.647Z,2.90
2018-05-07T11:27:48.770Z,3.30
2018-05-07T11:28:55.751Z,3.10
2018-05-07T11:30:02.547Z,3.00
2018-05-07T11:31:09.426Z,3.30
2018-05-07T11:32:16.385Z,3.00
2018-05-07T11:33:23.395Z,3.20
2018-05-07T11:34:30.342Z,2.50
2018-05-07T11:35:37.131Z,2.80
2018-05-07T11:36:43.923Z,3.10
2018-05-07T11:37:50.785Z,3.10
2018-05-07T11:38:57.578Z,2.80
2018-05-07T11:40:04.346Z,3.00
2018-05-07T11:41:11.085Z,3.00
2018-05-07T11:42:17.847Z,3.30
2018-05-07T11:43:24.710Z,3.10
2018-05-07T11:44:31.486Z,3.00
2018-05-07T11:45:38.266Z,2.70
2018-05-07T11:46:45.048Z,3.20
2018-05-07T11:47:51.910Z,2.90
2018-05-07T11:48:58.694Z,2.90
2018-05-07T11:50:05.463Z,2.70
2018-05-07T11:51:12.321Z,2.70
2018-05-07T11:52:19.071Z,2.70
2018-05-07T11:53:25.855Z,2.90
2018-05-07T11:54:32.754Z,2.70
2018-05-07T11:55:39.553Z,3.00
2018-05-07T11:56:46.320Z,3.10
2018-05-07T11:57:54.093Z,3.10
2018-05-07T11:58:59.883Z,2.80
2018-05-07T12:00:06.667Z,2.70
2018-05-07T12:01:13.495Z,3.00
2018-05-07T12:02:20.347Z,2.90
2018-05-07T12:03:27.135Z,3.10
2018-05-07T12:04:33.978Z,3.00
2018-05-07T12:05:40.770Z,2.80
2018-05-07T12:06:47.530Z,2.90
2018-05-07T12:07:54.306Z,3.70
2018-05-07T12:09:01.099Z,3.50
2018-05-07T12:10:08.055Z,3.20
2018-05-07T12:11:14.938Z,3.40
2018-05-07T12:12:21.684Z,3.00
2018-05-07T12:13:28.682Z,2.60
2018-05-07T12:14:35.495Z,3.10
2018-05-07T12:15:42.327Z,3.10
2018-05-07T12:16:49.003Z,3.30
2018-05-07T12:17:55.779Z,2.90
2018-05-07T12:19:02.571Z,3.20
2018-05-07T12:20:09.382Z,3.00
2018-05-07T12:21:16.131Z,3.60
2018-05-07T12:22:23.274Z,3.10
2018-05-07T12:23:29.996Z,3.20
2018-05-07T12:24:36.703Z,2.80
2018-05-07T12:25:43.526Z,3.20
2018-05-07T12:26:50.248Z,3.20
2018-05-07T12:27:56.982Z,3.20
2018-05-07T12:29:03.695Z,3.00
2018-05-07T12:30:10.423Z,3.10
2018-05-07T12:31:18.439Z,3.10
2018-05-07T12:32:24.150Z,2.80
2018-05-07T12:33:30.874Z,3.20
2018-05-07T12:34:37.694Z,3.10
2018-05-07T12:35:44.425Z,3.00
2018-05-07T12:36:51.194Z,2.90
2018-05-07T12:37:57.910Z,2.90
2018-05-07T12:39:04.698Z,3.20
2018-05-07T12:40:11.473Z,3.00
2018-05-07T12:41:18.203Z,2.90
2018-05-07T12:42:24.938Z,2.90
2018-05-07T12:43:31.717Z,3.00
2018-05-07T12:44:38.635Z,2.80
2018-05-07T12:45:45.415Z,2.70
2018-05-07T12:46:52.260Z,2.70
2018-05-07T12:47:58.960Z,2.70
2018-05-07T12:49:05.788Z,2.70
2018-05-07T12:50:12.507Z,2.80
2018-05-07T12:51:19.388Z,3.00
2018-05-07T12:52:26.344Z,2.90
2018-05-07T12:53:33.015Z,2.70
2018-05-07T12:54:39.934Z,2.80
2018-05-07T12:55:46.782Z,2.60
2018-05-07T12:56:53.516Z,2.70
2018-05-07T12:58:00.215Z,2.80
2018-05-07T12:59:07.092Z,2.90
2018-05-07T13:00:13.844Z,2.80
2018-05-07T13:01:20.615Z,2.90
2018-05-07T13:02:27.497Z,2.40
2018-05-07T13:03:34.406Z,2.80
2018-05-07T13:04:41.110Z,2.70
2018-05-07T13:05:47.847Z,2.80
2018-05-07T13:06:54.770Z,2.80
2018-05-07T13:08:01.486Z,2.60
2018-05-07T13:09:08.294Z,3.00
2018-05-07T13:10:15.100Z,2.60
2018-05-07T13:11:21.914Z,2.70
2018-05-07T13:12:28.723Z,2.80
2018-05-07T13:13:35.498Z,2.70
2018-05-07T13:14:42.222Z,2.40
2018-05-07T13:15:49.019Z,2.50
2018-05-07T13:16:55.943Z,2.60
2018-05-07T13:18:02.787Z,2.60
2018-05-07T13:19:09.759Z,2.70
2018-05-07T13:20:16.975Z,2.60
2018-05-07T13:21:23.937Z,2.50
2018-05-07T13:22:30.844Z,2.60
2018-05-07T13:23:37.778Z,2.90
2018-05-07T13:24:44.656Z,2.70
2018-05-07T13:25:51.540Z,2.60
2018-05-07T13:26:58.448Z,2.80
2018-05-07T13:28:05.383Z,2.70
2018-05-07T13:29:12.311Z,2.80
2018-05-07T13:30:19.259Z,2.80
2018-05-07T13:31:26.089Z,2.50
2018-05-07T13:32:33.700Z,2.70
2018-05-07T13:33:40.691Z,2.90
2018-05-07T13:34:46.757Z,2.80
2018-05-07T13:35:53.375Z,2.60
2018-05-07T13:37:01.332Z,2.80
2018-05-07T13:38:07.305Z,2.90
2018-05-07T13:39:14.266Z,2.70
2018-05-07T13:40:21.095Z,2.70
2018-05-07T13:41:27.960Z,2.80
2018-05-07T13:42:34.721Z,2.30
2018-05-07T13:43:42.416Z,2.50
2018-05-07T13:44:48.569Z,2.60
2018-05-07T13:45:55.920Z,2.40
2018-05-07T13:47:02.403Z,2.60
2018-05-07T13:48:09.222Z,2.50
2018-05-07T13:49:18.887Z,2.80
2018-05-07T13:50:23.252Z,3.00
2018-05-07T13:51:30.126Z,2.80
2018-05-07T13:52:37.321Z,2.60
2018-05-07T13:53:43.927Z,2.60
2018-05-07T13:54:50.860Z,2.40
2018-05-07T13:55:57.790Z,2.80
2018-05-07T13:57:04.947Z,2.70
2018-05-07T13:58:11.811Z,2.90
2018-05-07T13:59:18.589Z,3.00
2018-05-07T14:00:25.393Z,2.80
2018-05-07T14:01:32.167Z,2.60
2018-05-07T14:02:38.952Z,2.70
2018-05-07T14:03:45.738Z,2.80
2018-05-07T14:04:52.558Z,2.60
2018-05-07T14:05:59.482Z,2.80
2018-05-07T14:07:06.309Z,2.60
2018-05-07T14:08:12.993Z,2.70
2018-05-07T14:09:19.850Z,2.60
2018-05-07T14:10:26.624Z,2.60
2018-05-07T14:11:33.413Z,2.80
2018-05-07T14:12:40.288Z,2.70
2018-05-07T14:13:47.379Z,2.50
2018-05-07T14:14:53.922Z,2.80
2018-05-07T14:16:01.245Z,2.50
2018-05-07T14:17:07.623Z,2.90
2018-05-07T14:18:14.555Z,3.00
2018-05-07T14:19:21.350Z,2.70
2018-05-07T14:20:29.800Z,2.80
2018-05-07T14:21:35.155Z,2.90
2018-05-07T14:22:41.932Z,2.70
2018-05-07T14:23:48.799Z,2.80
2018-05-07T14:24:55.598Z,2.80
2018-05-07T14:26:02.408Z,2.60
2018-05-07T14:27:09.284Z,2.70
2018-05-07T14:28:16.050Z,2.80
2018-05-07T14:29:22.996Z,2.60
2018-05-07T14:30:29.895Z,2.70
2018-05-07T14:31:36.697Z,3.10
2018-05-07T14:32:43.555Z,2.90
2018-05-07T14:33:50.410Z,2.90
2018-05-07T14:34:57.344Z,2.80
2018-05-07T14:36:04.255Z,2.60
2018-05-07T14:37:11.127Z,2.70
2018-05-07T14:38:17.888Z,2.80
2018-05-07T14:39:24.671Z,2.60
2018-05-07T14:40:31.591Z,2.80
2018-05-07T14:41:38.434Z,2.70
2018-05-07T14:42:45.262Z,2.70
2018-05-07T14:43:52.168Z,2.60
2018-05-07T14:44:59.163Z,2.50
2018-05-07T14:46:06.192Z,2.70
2018-05-07T14:47:12.751Z,2.60
2018-05-07T14:48:19.752Z,2.60
2018-05-07T14:49:27.324Z,2.50
2018-05-07T14:50:33.336Z,2.60